sensor_id;sensor_type;location;lat;lon;timestamp;pressure;altitude;pressure_sealevel;temperature;humidity
13314;BME280;6725;48.112;11.604;2023-01-26T00:01:57;94969.22;;;-0.03;100.00
13314;BME280;6725;48.112;11.604;2023-01-26T00:04:23;94979.44;;;-0.08;100.00
13314;BME280;6725;48.112;11.604;2023-01-26T00:06:48;94971.84;;;-0.06;100.00
13314;BME280;6725;48.112;11.604;2023-01-26T00:09:14;94981.72;;;-0.10;100.00
13314;BME280;6725;48.112;11.604;2023-01-26T00:11:40;94983.94;;;-0.12;100.00
13314;BME280;6725;48.112;11.604;2023-01-26T00:14:05;94976.59;;;-0.15;100.00
13314;BME280;6725;48.112;11.604;2023-01-26T00:16:31;94972.63;;;-0.21;100.00
13314;BME280;6725;48.112;11.604;2023-01-26T00:18:56;94974.50;;;-0.22;100.00
13314;BME280;6725;48.112;11.604;2023-01-26T00:21:22;94970.81;;;-0.17;100.00
13314;BME280;6725;48.112;11.604;2023-01-26T00:23:49;94966.97;;;-0.16;100.00
13314;BME280;6725;48.112;11.604;2023-01-26T00:26:19;94975.03;;;-0.16;100.00
13314;BME280;6725;48.112;11.604;2023-01-26T00:28:45;94973.91;;;-0.15;100.00
13314;BME280;6725;48.112;11.604;2023-01-26T00:31:16;94971.22;;;-0.15;100.00
13314;BME280;6725;48.112;11.604;2023-01-26T00:33:42;94985.88;;;-0.13;100.00
13314;BME280;6725;48.112;11.604;2023-01-26T00:36:08;94999.69;;;-0.11;100.00
13314;BME280;6725;48.112;11.604;2023-01-26T00:38:33;94997.88;;;-0.07;100.00
13314;BME280;6725;48.112;11.604;2023-01-26T00:40:58;95005.16;;;-0.07;100.00
13314;BME280;6725;48.112;11.604;2023-01-26T00:43:24;95014.94;;;0.01;100.00
13314;BME280;6725;48.112;11.604;2023-01-26T00:45:49;95017.47;;;0.10;100.00
13314;BME280;6725;48.112;11.604;2023-01-26T00:48:15;95031.72;;;-0.02;100.00
13314;BME280;6725;48.112;11.604;2023-01-26T00:50:40;95043.06;;;-0.09;100.00
13314;BME280;6725;48.112;11.604;2023-01-26T00:53:06;95060.53;;;-0.15;100.00
13314;BME280;6725;48.112;11.604;2023-01-26T00:55:31;95061.13;;;-0.21;100.00
13314;BME280;6725;48.112;11.604;2023-01-26T00:58:01;95073.16;;;-0.15;100.00
13314;BME280;6725;48.112;11.604;2023-01-26T01:00:27;95063.28;;;-0.11;100.00
13314;BME280;6725;48.112;11.604;2023-01-26T01:02:53;95073.09;;;-0.03;100.00
13314;BME280;6725;48.112;11.604;2023-01-26T01:05:21;95071.63;;;-0.01;100.00
13314;BME280;6725;48.112;11.604;2023-01-26T01:07:46;95079.34;;;0.01;100.00
13314;BME280;6725;48.112;11.604;2023-01-26T01:10:12;95080.72;;;-0.05;100.00
13314;BME280;6725;48.112;11.604;2023-01-26T01:12:37;95082.25;;;-0.04;100.00
13314;BME280;6725;48.112;11.604;2023-01-26T01:15:03;95095.31;;;-0.18;100.00
13314;BME280;6725;48.112;11.604;2023-01-26T01:17:28;95091.72;;;-0.22;100.00
13314;BME280;6725;48.112;11.604;2023-01-26T01:19:54;95101.69;;;-0.23;100.00
13314;BME280;6725;48.112;11.604;2023-01-26T01:22:19;95102.28;;;-0.29;100.00
13314;BME280;6725;48.112;11.604;2023-01-26T01:24:44;95109.69;;;-0.38;100.00
13314;BME280;6725;48.112;11.604;2023-01-26T01:27:10;95109.88;;;-0.31;100.00
13314;BME280;6725;48.112;11.604;2023-01-26T01:29:35;95106.06;;;-0.30;100.00
13314;BME280;6725;48.112;11.604;2023-01-26T01:32:00;95106.28;;;-0.23;100.00
13314;BME280;6725;48.112;11.604;2023-01-26T01:34:26;95110.09;;;-0.24;100.00
13314;BME280;6725;48.112;11.604;2023-01-26T01:36:51;95103.59;;;-0.23;100.00
13314;BME280;6725;48.112;11.604;2023-01-26T01:39:17;95109.41;;;-0.21;100.00
13314;BME280;6725;48.112;11.604;2023-01-26T01:41:42;95109.28;;;-0.25;100.00
13314;BME280;6725;48.112;11.604;2023-01-26T01:44:22;95108.72;;;-0.18;100.00
13314;BME280;6725;48.112;11.604;2023-01-26T01:46:57;95108.72;;;-0.18;100.00
13314;BME280;6725;48.112;11.604;2023-01-26T01:49:45;95116.31;;;-0.20;100.00
13314;BME280;6725;48.112;11.604;2023-01-26T01:52:15;95115.44;;;-0.24;100.00
13314;BME280;6725;48.112;11.604;2023-01-26T01:54:50;95120.03;;;-0.25;100.00
13314;BME280;6725;48.112;11.604;2023-01-26T01:57:28;95125.31;;;-0.28;100.00
13314;BME280;6725;48.112;11.604;2023-01-26T02:00:01;95129.13;;;-0.29;100.00
13314;BME280;6725;48.112;11.604;2023-01-26T02:02:28;95125.09;;;-0.35;100.00
13314;BME280;6725;48.112;11.604;2023-01-26T02:04:56;95123.09;;;-0.38;100.00
13314;BME280;6725;48.112;11.604;2023-01-26T02:07:24;95119.09;;;-0.44;100.00
13314;BME280;6725;48.112;11.604;2023-01-26T02:09:50;95110.47;;;-0.38;100.00
13314;BME280;6725;48.112;11.604;2023-01-26T02:12:34;95100.91;;;-0.23;100.00
13314;BME280;6725;48.112;11.604;2023-01-26T02:15:02;95106.38;;;-0.20;100.00
13314;BME280;6725;48.112;11.604;2023-01-26T02:17:28;95111.97;;;-0.25;100.00
13314;BME280;6725;48.112;11.604;2023-01-26T02:20:08;95104.31;;;-0.38;100.00
13314;BME280;6725;48.112;11.604;2023-01-26T02:22:59;95099.56;;;-0.45;100.00
13314;BME280;6725;48.112;11.604;2023-01-26T02:25:38;95094.28;;;-0.41;100.00
13314;BME280;6725;48.112;11.604;2023-01-26T02:28:04;95080.53;;;-0.40;100.00
13314;BME280;6725;48.112;11.604;2023-01-26T02:30:31;95071.94;;;-0.45;100.00
13314;BME280;6725;48.112;11.604;2023-01-26T02:32:57;95062.97;;;-0.37;100.00
13314;BME280;6725;48.112;11.604;2023-01-26T02:35:22;95058.75;;;-0.38;100.00
13314;BME280;6725;48.112;11.604;2023-01-26T02:37:48;95053.63;;;-0.43;100.00
13314;BME280;6725;48.112;11.604;2023-01-26T02:40:50;95042.41;;;-0.33;100.00
13314;BME280;6725;48.112;11.604;2023-01-26T02:43:17;95035.47;;;-0.34;100.00
13314;BME280;6725;48.112;11.604;2023-01-26T02:45:43;95035.13;;;-0.33;100.00
13314;BME280;6725;48.112;11.604;2023-01-26T02:48:09;95036.16;;;-0.37;100.00
13314;BME280;6725;48.112;11.604;2023-01-26T02:50:34;95033.94;;;-0.35;100.00
13314;BME280;6725;48.112;11.604;2023-01-26T02:53:00;95034.06;;;-0.44;100.00
13314;BME280;6725;48.112;11.604;2023-01-26T02:55:26;95020.06;;;-0.37;100.00
13314;BME280;6725;48.112;11.604;2023-01-26T02:58:02;95025.00;;;-0.39;100.00
13314;BME280;6725;48.112;11.604;2023-01-26T03:00:31;95016.63;;;-0.38;100.00
13314;BME280;6725;48.112;11.604;2023-01-26T03:02:58;95016.97;;;-0.39;100.00
13314;BME280;6725;48.112;11.604;2023-01-26T03:05:26;95019.88;;;-0.44;100.00
13314;BME280;6725;48.112;11.604;2023-01-26T03:07:52;95006.25;;;-0.39;100.00
13314;BME280;6725;48.112;11.604;2023-01-26T03:10:18;95003.91;;;-0.41;100.00
13314;BME280;6725;48.112;11.604;2023-01-26T03:12:44;95002.88;;;-0.36;100.00
13314;BME280;6725;48.112;11.604;2023-01-26T03:15:10;95003.09;;;-0.41;100.00
13314;BME280;6725;48.112;11.604;2023-01-26T03:18:05;95008.38;;;-0.45;100.00
13314;BME280;6725;48.112;11.604;2023-01-26T03:21:11;95009.16;;;-0.44;100.00
13314;BME280;6725;48.112;11.604;2023-01-26T03:23:56;95003.91;;;-0.41;100.00
13314;BME280;6725;48.112;11.604;2023-01-26T03:26:40;95006.31;;;-0.36;100.00
13314;BME280;6725;48.112;11.604;2023-01-26T03:29:24;95013.44;;;-0.55;100.00
13314;BME280;6725;48.112;11.604;2023-01-26T03:31:51;95013.44;;;-0.55;100.00
13314;BME280;6725;48.112;11.604;2023-01-26T03:34:16;95009.88;;;-0.47;100.00
13314;BME280;6725;48.112;11.604;2023-01-26T03:36:42;95009.88;;;-0.47;100.00
13314;BME280;6725;48.112;11.604;2023-01-26T03:39:07;95010.28;;;-0.45;100.00
13314;BME280;6725;48.112;11.604;2023-01-26T03:41:33;95013.66;;;-0.48;100.00
13314;BME280;6725;48.112;11.604;2023-01-26T03:44:17;95016.78;;;-0.46;100.00
13314;BME280;6725;48.112;11.604;2023-01-26T03:47:01;95013.84;;;-0.41;100.00
13314;BME280;6725;48.112;11.604;2023-01-26T03:49:45;95016.97;;;-0.39;100.00
13314;BME280;6725;48.112;11.604;2023-01-26T03:52:32;95016.19;;;-0.40;100.00
13314;BME280;6725;48.112;11.604;2023-01-26T03:55:16;95017.72;;;-0.39;100.00
13314;BME280;6725;48.112;11.604;2023-01-26T03:58:00;95016.72;;;-0.34;100.00
13314;BME280;6725;48.112;11.604;2023-01-26T04:00:25;95014.91;;;-0.30;100.00
13314;BME280;6725;48.112;11.604;2023-01-26T04:02:50;95014.91;;;-0.30;100.00
13314;BME280;6725;48.112;11.604;2023-01-26T04:05:34;95025.97;;;-0.32;100.00
13314;BME280;6725;48.112;11.604;2023-01-26T04:08:18;95027.69;;;-0.39;100.00
13314;BME280;6725;48.112;11.604;2023-01-26T04:10:49;95033.72;;;-0.42;100.00
13314;BME280;6725;48.112;11.604;2023-01-26T04:13:17;95028.75;;;-0.28;100.00
13314;BME280;6725;48.112;11.604;2023-01-26T04:16:02;95026.25;;;-0.21;100.00
13314;BME280;6725;48.112;11.604;2023-01-26T04:18:46;95031.19;;;-0.23;100.00
13314;BME280;6725;48.112;11.604;2023-01-26T04:21:30;95024.25;;;-0.24;100.00
13314;BME280;6725;48.112;11.604;2023-01-26T04:24:00;95028.16;;;-0.22;100.00
13314;BME280;6725;48.112;11.604;2023-01-26T04:26:29;95032.72;;;-0.22;100.00
13314;BME280;6725;48.112;11.604;2023-01-26T04:29:05;95037.22;;;-0.26;100.00
13314;BME280;6725;48.112;11.604;2023-01-26T04:31:31;95044.84;;;-0.28;100.00
13314;BME280;6725;48.112;11.604;2023-01-26T04:33:58;95043.44;;;-0.22;100.00
13314;BME280;6725;48.112;11.604;2023-01-26T04:36:24;95052.91;;;-0.28;100.00
13314;BME280;6725;48.112;11.604;2023-01-26T04:38:49;95057.38;;;-0.32;100.00
13314;BME280;6725;48.112;11.604;2023-01-26T04:41:15;95067.25;;;-0.36;100.00
13314;BME280;6725;48.112;11.604;2023-01-26T04:43:40;95068.84;;;-0.47;100.00
13314;BME280;6725;48.112;11.604;2023-01-26T04:46:06;95073.06;;;-0.46;100.00
13314;BME280;6725;48.112;11.604;2023-01-26T04:48:33;95066.78;;;-0.38;100.00
13314;BME280;6725;48.112;11.604;2023-01-26T04:51:01;95069.22;;;-0.33;100.00
13314;BME280;6725;48.112;11.604;2023-01-26T04:53:28;95067.66;;;-0.34;100.00
13314;BME280;6725;48.112;11.604;2023-01-26T04:55:54;95077.78;;;-0.28;100.00
13314;BME280;6725;48.112;11.604;2023-01-26T04:58:19;95063.81;;;-0.21;100.00
13314;BME280;6725;48.112;11.604;2023-01-26T05:00:52;95070.38;;;-0.19;100.00
13314;BME280;6725;48.112;11.604;2023-01-26T05:03:18;95064.22;;;-0.19;100.00
13314;BME280;6725;48.112;11.604;2023-01-26T05:05:44;95066.50;;;-0.21;100.00
13314;BME280;6725;48.112;11.604;2023-01-26T05:08:12;95071.00;;;-0.25;100.00
13314;BME280;6725;48.112;11.604;2023-01-26T05:10:37;95065.44;;;-0.32;100.00
13314;BME280;6725;48.112;11.604;2023-01-26T05:13:02;95068.53;;;-0.30;100.00
13314;BME280;6725;48.112;11.604;2023-01-26T05:15:28;95072.53;;;-0.24;100.00
13314;BME280;6725;48.112;11.604;2023-01-26T05:17:53;95072.34;;;-0.31;100.00
13314;BME280;6725;48.112;11.604;2023-01-26T05:20:18;95084.00;;;-0.39;100.00
13314;BME280;6725;48.112;11.604;2023-01-26T05:22:44;95086.88;;;-0.32;100.00
13314;BME280;6725;48.112;11.604;2023-01-26T05:25:09;95085.50;;;-0.26;100.00
13314;BME280;6725;48.112;11.604;2023-01-26T05:27:35;95078.31;;;-0.22;100.00
13314;BME280;6725;48.112;11.604;2023-01-26T05:30:00;95074.19;;;-0.20;100.00
13314;BME280;6725;48.112;11.604;2023-01-26T05:32:27;95073.50;;;-0.17;100.00
13314;BME280;6725;48.112;11.604;2023-01-26T05:34:52;95071.00;;;-0.25;100.00
13314;BME280;6725;48.112;11.604;2023-01-26T05:37:18;95074.28;;;-0.16;100.00
13314;BME280;6725;48.112;11.604;2023-01-26T05:39:43;95071.34;;;-0.11;100.00
13314;BME280;6725;48.112;11.604;2023-01-26T05:42:12;95065.28;;;-0.08;100.00
13314;BME280;6725;48.112;11.604;2023-01-26T05:44:38;95062.38;;;-0.03;100.00
13314;BME280;6725;48.112;11.604;2023-01-26T05:47:04;95077.41;;;-0.14;100.00
13314;BME280;6725;48.112;11.604;2023-01-26T05:49:29;95089.69;;;-0.13;100.00
13314;BME280;6725;48.112;11.604;2023-01-26T05:51:55;95089.69;;;-0.13;100.00
13314;BME280;6725;48.112;11.604;2023-01-26T05:54:21;95101.22;;;-0.13;100.00
13314;BME280;6725;48.112;11.604;2023-01-26T05:56:46;95114.44;;;-0.20;100.00
13314;BME280;6725;48.112;11.604;2023-01-26T05:59:11;95110.88;;;-0.24;100.00
13314;BME280;6725;48.112;11.604;2023-01-26T06:01:37;95112.09;;;-0.21;100.00
13314;BME280;6725;48.112;11.604;2023-01-26T06:04:03;95107.25;;;-0.16;100.00
13314;BME280;6725;48.112;11.604;2023-01-26T06:06:29;95103.44;;;-0.15;100.00
13314;BME280;6725;48.112;11.604;2023-01-26T06:08:54;95119.22;;;-0.13;100.00
13314;BME280;6725;48.112;11.604;2023-01-26T06:11:19;95110.03;;;-0.12;100.00
13314;BME280;6725;48.112;11.604;2023-01-26T06:13:45;95114.25;;;-0.11;100.00
13314;BME280;6725;48.112;11.604;2023-01-26T06:16:10;95115.06;;;-0.11;100.00
13314;BME280;6725;48.112;11.604;2023-01-26T06:18:35;95124.22;;;-0.12;100.00
13314;BME280;6725;48.112;11.604;2023-01-26T06:21:01;95124.81;;;-0.18;100.00
13314;BME280;6725;48.112;11.604;2023-01-26T06:23:26;95127.72;;;-0.23;100.00
13314;BME280;6725;48.112;11.604;2023-01-26T06:25:52;95129.53;;;-0.27;100.00
13314;BME280;6725;48.112;11.604;2023-01-26T06:28:17;95126.84;;;-0.27;100.00
13314;BME280;6725;48.112;11.604;2023-01-26T06:30:44;95119.16;;;-0.29;100.00
13314;BME280;6725;48.112;11.604;2023-01-26T06:33:10;95120.41;;;-0.38;100.00
13314;BME280;6725;48.112;11.604;2023-01-26T06:35:35;95114.19;;;-0.42;100.00
13314;BME280;6725;48.112;11.604;2023-01-26T06:38:00;95110.16;;;-0.48;100.00
13314;BME280;6725;48.112;11.604;2023-01-26T06:40:26;95107.72;;;-0.53;100.00
13314;BME280;6725;48.112;11.604;2023-01-26T06:42:51;95111.34;;;-0.61;100.00
13314;BME280;6725;48.112;11.604;2023-01-26T06:45:17;95093.41;;;-0.45;100.00
13314;BME280;6725;48.112;11.604;2023-01-26T06:47:45;95084.28;;;-0.56;100.00
13314;BME280;6725;48.112;11.604;2023-01-26T06:50:11;95086.75;;;-0.51;100.00
13314;BME280;6725;48.112;11.604;2023-01-26T06:52:40;95086.09;;;-0.60;100.00
13314;BME280;6725;48.112;11.604;2023-01-26T06:55:23;95075.16;;;-0.67;100.00
13314;BME280;6725;48.112;11.604;2023-01-26T06:57:52;95062.41;;;-0.58;100.00
13314;BME280;6725;48.112;11.604;2023-01-26T07:00:18;95054.13;;;-0.53;100.00
13314;BME280;6725;48.112;11.604;2023-01-26T07:02:43;95052.16;;;-0.68;100.00
13314;BME280;6725;48.112;11.604;2023-01-26T07:05:08;95044.31;;;-0.61;100.00
13314;BME280;6725;48.112;11.604;2023-01-26T07:07:34;95039.78;;;-0.45;100.00
13314;BME280;6725;48.112;11.604;2023-01-26T07:09:59;95028.56;;;-0.35;100.00
13314;BME280;6725;48.112;11.604;2023-01-26T07:12:25;95031.09;;;-0.27;100.00
13314;BME280;6725;48.112;11.604;2023-01-26T07:14:50;95025.81;;;-0.23;100.00
13314;BME280;6725;48.112;11.604;2023-01-26T07:17:16;95028.25;;;-0.18;100.00
13314;BME280;6725;48.112;11.604;2023-01-26T07:19:41;95025.31;;;-0.13;100.00
13314;BME280;6725;48.112;11.604;2023-01-26T07:22:07;95043.22;;;-0.17;100.00
13314;BME280;6725;48.112;11.604;2023-01-26T07:24:32;95041.41;;;-0.13;100.00
13314;BME280;6725;48.112;11.604;2023-01-26T07:26:57;95049.88;;;-0.11;100.00
13314;BME280;6725;48.112;11.604;2023-01-26T07:29:23;95051.69;;;-0.15;100.00
13314;BME280;6725;48.112;11.604;2023-01-26T07:31:48;95054.03;;;-0.14;100.00
13314;BME280;6725;48.112;11.604;2023-01-26T07:34:14;95069.59;;;-0.19;100.00
13314;BME280;6725;48.112;11.604;2023-01-26T07:36:39;95080.78;;;-0.17;100.00
13314;BME280;6725;48.112;11.604;2023-01-26T07:39:05;95084.22;;;-0.17;100.00
13314;BME280;6725;48.112;11.604;2023-01-26T07:41:31;95088.91;;;-0.14;100.00
13314;BME280;6725;48.112;11.604;2023-01-26T07:43:56;95101.09;;;-0.16;100.00
13314;BME280;6725;48.112;11.604;2023-01-26T07:46:21;95097.09;;;-0.22;100.00
13314;BME280;6725;48.112;11.604;2023-01-26T07:48:47;95113.19;;;-0.22;100.00
13314;BME280;6725;48.112;11.604;2023-01-26T07:51:12;95098.88;;;-0.14;100.00
13314;BME280;6725;48.112;11.604;2023-01-26T07:53:38;95120.91;;;-0.21;100.00
13314;BME280;6725;48.112;11.604;2023-01-26T07:58:33;95130.13;;;-0.06;100.00
13314;BME280;6725;48.112;11.604;2023-01-26T08:01:04;95129.19;;;0.02;100.00
13314;BME280;6725;48.112;11.604;2023-01-26T08:03:29;95133.88;;;0.05;100.00
13314;BME280;6725;48.112;11.604;2023-01-26T08:05:55;95147.56;;;0.00;100.00
13314;BME280;6725;48.112;11.604;2023-01-26T08:08:20;95159.38;;;-0.01;100.00
13314;BME280;6725;48.112;11.604;2023-01-26T08:10:45;95161.66;;;-0.03;100.00
13314;BME280;6725;48.112;11.604;2023-01-26T08:13:10;95169.25;;;-0.05;100.00
13314;BME280;6725;48.112;11.604;2023-01-26T08:15:36;95180.56;;;-0.12;100.00
13314;BME280;6725;48.112;11.604;2023-01-26T08:18:01;95187.16;;;-0.09;100.00
13314;BME280;6725;48.112;11.604;2023-01-26T08:20:29;95192.91;;;0.05;100.00
13314;BME280;6725;48.112;11.604;2023-01-26T08:22:54;95197.16;;;0.06;100.00
13314;BME280;6725;48.112;11.604;2023-01-26T08:25:20;95200.72;;;0.10;100.00
13314;BME280;6725;48.112;11.604;2023-01-26T08:27:45;95201.84;;;0.09;100.00
13314;BME280;6725;48.112;11.604;2023-01-26T08:30:11;95210.38;;;-0.01;100.00
13314;BME280;6725;48.112;11.604;2023-01-26T08:32:37;95216.31;;;-0.08;100.00
13314;BME280;6725;48.112;11.604;2023-01-26T08:35:02;95222.13;;;-0.06;100.00
13314;BME280;6725;48.112;11.604;2023-01-26T08:37:28;95234.78;;;-0.06;100.00
13314;BME280;6725;48.112;11.604;2023-01-26T08:39:53;95235.22;;;-0.16;100.00
13314;BME280;6725;48.112;11.604;2023-01-26T08:42:19;95241.47;;;-0.12;100.00
13314;BME280;6725;48.112;11.604;2023-01-26T08:44:44;95246.19;;;-0.09;100.00
13314;BME280;6725;48.112;11.604;2023-01-26T08:47:09;95241.00;;;-0.02;100.00
13314;BME280;6725;48.112;11.604;2023-01-26T08:49:34;95249.47;;;0.12;100.00
13314;BME280;6725;48.112;11.604;2023-01-26T08:52:00;95246.13;;;0.15;100.00
13314;BME280;6725;48.112;11.604;2023-01-26T08:54:25;95240.03;;;0.18;100.00
13314;BME280;6725;48.112;11.604;2023-01-26T08:56:50;95249.69;;;0.19;100.00
13314;BME280;6725;48.112;11.604;2023-01-26T08:59:17;95262.91;;;0.12;100.00
13314;BME280;6725;48.112;11.604;2023-01-26T09:01:42;95252.16;;;0.12;100.00
13314;BME280;6725;48.112;11.604;2023-01-26T09:04:08;95259.75;;;0.10;100.00
13314;BME280;6725;48.112;11.604;2023-01-26T09:06:33;95268.00;;;0.17;100.00
13314;BME280;6725;48.112;11.604;2023-01-26T09:08:58;95261.31;;;0.23;100.00
13314;BME280;6725;48.112;11.604;2023-01-26T09:11:24;95260.44;;;0.35;100.00
13314;BME280;6725;48.112;11.604;2023-01-26T09:13:50;95259.91;;;0.41;100.00
13314;BME280;6725;48.112;11.604;2023-01-26T09:16:21;95267.69;;;0.46;100.00
13314;BME280;6725;48.112;11.604;2023-01-26T09:18:52;95267.88;;;0.53;100.00
13314;BME280;6725;48.112;11.604;2023-01-26T09:21:18;95267.44;;;0.51;100.00
13314;BME280;6725;48.112;11.604;2023-01-26T09:23:44;95272.59;;;0.56;100.00
13314;BME280;6725;48.112;11.604;2023-01-26T09:26:09;95274.47;;;0.56;100.00
13314;BME280;6725;48.112;11.604;2023-01-26T09:28:35;95284.69;;;0.50;100.00
13314;BME280;6725;48.112;11.604;2023-01-26T09:31:05;95299.72;;;0.39;100.00
13314;BME280;6725;48.112;11.604;2023-01-26T09:33:31;95303.88;;;0.37;100.00
13314;BME280;6725;48.112;11.604;2023-01-26T09:36:02;95303.66;;;0.30;100.00
13314;BME280;6725;48.112;11.604;2023-01-26T09:38:28;95306.94;;;0.23;100.00
13314;BME280;6725;48.112;11.604;2023-01-26T09:44:06;95308.28;;;0.17;100.00
13314;BME280;6725;48.112;11.604;2023-01-26T09:49:24;95313.59;;;0.29;100.00
13314;BME280;6725;48.112;11.604;2023-01-26T09:51:52;95308.25;;;0.29;100.00
13314;BME280;6725;48.112;11.604;2023-01-26T09:54:34;95306.25;;;0.26;100.00
13314;BME280;6725;48.112;11.604;2023-01-26T09:57:11;95292.97;;;0.18;100.00
13314;BME280;6725;48.112;11.604;2023-01-26T09:59:43;95283.91;;;0.22;100.00
13314;BME280;6725;48.112;11.604;2023-01-26T10:04:36;95268.69;;;0.26;100.00
13314;BME280;6725;48.112;11.604;2023-01-26T10:07:08;95273.34;;;0.29;100.00
13314;BME280;6725;48.112;11.604;2023-01-26T10:09:36;95273.03;;;0.19;100.00
13314;BME280;6725;48.112;11.604;2023-01-26T10:12:06;95267.38;;;0.08;100.00
13314;BME280;6725;48.112;11.604;2023-01-26T10:14:36;95255.59;;;0.13;100.00
13314;BME280;6725;48.112;11.604;2023-01-26T10:17:06;95259.28;;;0.20;100.00
13314;BME280;6725;48.112;11.604;2023-01-26T10:20:44;95246.22;;;0.46;100.00
13314;BME280;6725;48.112;11.604;2023-01-26T10:22:44;95255.06;;;0.47;100.00
13314;BME280;6725;48.112;11.604;2023-01-26T10:25:14;95250.91;;;0.49;100.00
13314;BME280;6725;48.112;11.604;2023-01-26T10:27:41;95246.88;;;0.43;100.00
13314;BME280;6725;48.112;11.604;2023-01-26T10:30:12;95242.38;;;0.47;100.00
13314;BME280;6725;48.112;11.604;2023-01-26T10:32:40;95243.78;;;0.41;100.00
13314;BME280;6725;48.112;11.604;2023-01-26T10:35:14;95237.91;;;0.51;100.00
13314;BME280;6725;48.112;11.604;2023-01-26T10:37:40;95239.63;;;0.44;100.00
13314;BME280;6725;48.112;11.604;2023-01-26T10:40:06;95241.38;;;0.24;100.00
13314;BME280;6725;48.112;11.604;2023-01-26T10:42:33;95242.03;;;0.33;100.00
13314;BME280;6725;48.112;11.604;2023-01-26T10:45:02;95244.34;;;0.35;100.00
13314;BME280;6725;48.112;11.604;2023-01-26T10:47:28;95242.91;;;0.37;100.00
13314;BME280;6725;48.112;11.604;2023-01-26T10:50:26;95238.84;;;0.43;100.00
13314;BME280;6725;48.112;11.604;2023-01-26T10:53:00;95230.97;;;0.50;100.00
13314;BME280;6725;48.112;11.604;2023-01-26T10:55:27;95233.59;;;0.62;100.00
13314;BME280;6725;48.112;11.604;2023-01-26T10:57:53;95233.44;;;0.55;100.00
13314;BME280;6725;48.112;11.604;2023-01-26T11:00:27;95232.63;;;0.55;100.00
13314;BME280;6725;48.112;11.604;2023-01-26T11:02:58;95233.44;;;0.55;100.00
13314;BME280;6725;48.112;11.604;2023-01-26T11:05:26;95230.88;;;0.47;100.00
13314;BME280;6725;48.112;11.604;2023-01-26T11:07:56;95226.78;;;0.37;100.00
13314;BME280;6725;48.112;11.604;2023-01-26T11:10:38;95227.66;;;0.41;100.00
13314;BME280;6725;48.112;11.604;2023-01-26T11:13:18;95227.94;;;0.24;100.00
13314;BME280;6725;48.112;11.604;2023-01-26T11:18:35;95225.22;;;0.36;100.00
13314;BME280;6725;48.112;11.604;2023-01-26T11:24:03;95218.78;;;0.25;100.00
13314;BME280;6725;48.112;11.604;2023-01-26T11:32:22;95216.34;;;0.20;100.00
13314;BME280;6725;48.112;11.604;2023-01-26T11:37:37;95200.03;;;0.13;100.00
13314;BME280;6725;48.112;11.604;2023-01-26T11:40:34;95182.97;;;0.33;100.00
13314;BME280;6725;48.112;11.604;2023-01-26T11:48:46;95192.13;;;0.32;100.00
13314;BME280;6725;48.112;11.604;2023-01-26T11:54:23;95193.16;;;0.28;100.00
13314;BME280;6725;48.112;11.604;2023-01-26T11:59:50;95190.16;;;0.45;100.00
13314;BME280;6725;48.112;11.604;2023-01-26T12:02:28;95196.38;;;0.33;100.00
13314;BME280;6725;48.112;11.604;2023-01-26T12:04:56;95191.44;;;0.35;100.00
13314;BME280;6725;48.112;11.604;2023-01-26T12:07:40;95186.81;;;0.20;100.00
13314;BME280;6725;48.112;11.604;2023-01-26T12:10:36;95186.75;;;0.32;100.00
13314;BME280;6725;48.112;11.604;2023-01-26T12:13:10;95181.00;;;0.18;100.00
13314;BME280;6725;48.112;11.604;2023-01-26T12:15:43;95185.13;;;0.28;100.00
13314;BME280;6725;48.112;11.604;2023-01-26T12:18:24;95184.31;;;0.27;100.00
13314;BME280;6725;48.112;11.604;2023-01-26T12:21:01;95164.78;;;0.42;100.00
13314;BME280;6725;48.112;11.604;2023-01-26T12:23:49;95164.97;;;0.49;100.00
13314;BME280;6725;48.112;11.604;2023-01-26T12:26:28;95166.16;;;0.36;100.00
13314;BME280;6725;48.112;11.604;2023-01-26T12:34:11;95163.28;;;0.29;100.00
13314;BME280;6725;48.112;11.604;2023-01-26T12:39:44;95156.91;;;0.06;100.00
13314;BME280;6725;48.112;11.604;2023-01-26T12:42:32;95154.53;;;0.17;100.00
13314;BME280;6725;48.112;11.604;2023-01-26T12:45:08;95143.88;;;0.20;100.00
13314;BME280;6725;48.112;11.604;2023-01-26T12:48:08;95138.72;;;0.43;100.00
13314;BME280;6725;48.112;11.604;2023-01-26T12:50:44;95136.22;;;0.50;100.00
13314;BME280;6725;48.112;11.604;2023-01-26T12:53:22;95130.66;;;0.58;100.00
13314;BME280;6725;48.112;11.604;2023-01-26T12:56:16;95138.28;;;0.56;100.00
13314;BME280;6725;48.112;11.604;2023-01-26T12:58:46;95151.97;;;0.67;100.00
13314;BME280;6725;48.112;11.604;2023-01-26T13:01:15;95155.44;;;0.67;100.00
13314;BME280;6725;48.112;11.604;2023-01-26T13:04:05;95154.94;;;0.77;100.00
13314;BME280;6725;48.112;11.604;2023-01-26T13:06:32;95169.94;;;0.78;100.00
13314;BME280;6725;48.112;11.604;2023-01-26T13:09:20;95173.47;;;0.82;100.00
13314;BME280;6725;48.112;11.604;2023-01-26T13:11:57;95185.03;;;0.83;100.00
13314;BME280;6725;48.112;11.604;2023-01-26T13:35:14;95222.59;;;0.67;100.00
13314;BME280;6725;48.112;11.604;2023-01-26T13:38:02;95210.19;;;0.63;100.00
13314;BME280;6725;48.112;11.604;2023-01-26T13:40:37;95210.50;;;0.30;100.00
13314;BME280;6725;48.112;11.604;2023-01-26T13:48:39;95192.44;;;0.15;100.00
13314;BME280;6725;48.112;11.604;2023-01-26T13:51:08;95192.91;;;0.05;100.00
13314;BME280;6725;48.112;11.604;2023-01-26T13:56:25;95167.94;;;0.17;100.00
13314;BME280;6725;48.112;11.604;2023-01-26T13:58:51;95165.16;;;0.13;100.00
13314;BME280;6725;48.112;11.604;2023-01-26T14:01:18;95169.66;;;0.09;100.00
13314;BME280;6725;48.112;11.604;2023-01-26T14:03:43;95153.41;;;0.18;100.00
13314;BME280;6725;48.112;11.604;2023-01-26T14:06:13;95164.91;;;-0.10;100.00
13314;BME280;6725;48.112;11.604;2023-01-26T14:08:44;95145.97;;;-0.01;100.00
13314;BME280;6725;48.112;11.604;2023-01-26T14:11:18;95140.56;;;0.11;100.00
13314;BME280;6725;48.112;11.604;2023-01-26T14:13:49;95136.94;;;0.19;100.00
13314;BME280;6725;48.112;11.604;2023-01-26T14:16:30;95127.09;;;0.23;100.00
13314;BME280;6725;48.112;11.604;2023-01-26T14:19:22;95129.56;;;0.16;100.00
13314;BME280;6725;48.112;11.604;2023-01-26T14:21:55;95127.66;;;0.01;100.00